Time;durP1;ratioP1;P1;durP2;ratioP2;P2;SDS_P1;SDS_P2;PMS_P1;PMS_P2;Temp;Humidity;BMP_temperature;BMP_pressure;BME280_temperature;BME280_humidity;BME280_pressure;Samples;Min_cycle;Max_cycle;Signal;HPM_P1;HPM_P2
2022/09/11 00:00:59;;;;;;;33.05;18.23;;;9.10;82.10;;;;;;5034740;28;20553;-82
2022/09/11 00:03:26;;;;;;;25.70;16.95;;;9.00;82.20;;;;;;5036293;28;20045;-82
2022/09/11 00:05:53;;;;;;;37.53;20.98;;;9.00;82.20;;;;;;5035065;28;20574;-82
2022/09/11 00:08:20;;;;;;;31.40;17.30;;;9.00;82.10;;;;;;5034652;28;20034;-84
2022/09/11 00:10:47;;;;;;;30.10;17.65;;;9.00;82.20;;;;;;5034804;28;20359;-83
2022/09/11 00:13:19;;;;;;;32.10;18.08;;;9.00;82.00;;;;;;5034341;28;20025;-83
2022/09/11 00:15:48;;;;;;;37.05;17.08;;;9.10;82.00;;;;;;5034863;28;20091;-83
2022/09/11 00:18:16;;;;;;;31.85;18.70;;;9.00;82.10;;;;;;5033132;28;20136;-83
2022/09/11 00:20:54;;;;;;;32.42;18.35;;;9.00;82.30;;;;;;5034609;28;20021;-84
2022/09/11 00:23:22;;;;;;;31.73;18.02;;;9.00;82.50;;;;;;5034922;28;20513;-82
2022/09/11 00:25:49;;;;;;;34.55;17.00;;;8.90;82.40;;;;;;5033792;28;20371;-83
2022/09/11 00:28:18;;;;;;;28.52;17.27;;;8.90;82.40;;;;;;5035491;28;20029;-82
2022/09/11 00:30:45;;;;;;;31.05;16.85;;;8.90;82.60;;;;;;5036493;28;20041;-81
2022/09/11 00:33:12;;;;;;;34.50;16.20;;;8.90;82.80;;;;;;5031343;28;20128;-84
2022/09/11 00:35:39;;;;;;;30.17;17.02;;;8.90;82.80;;;;;;5052762;28;20102;-82
2022/09/11 00:38:07;;;;;;;39.23;19.07;;;8.90;82.80;;;;;;5053789;28;20059;-85
2022/09/11 00:40:43;;;;;;;31.42;17.67;;;8.90;83.00;;;;;;5041505;28;20041;-84
2022/09/11 00:43:09;;;;;;;32.85;17.00;;;8.80;83.30;;;;;;5035666;28;20509;-85
2022/09/11 00:45:35;;;;;;;37.35;17.92;;;8.80;83.60;;;;;;5033467;28;20030;-84
2022/09/11 00:48:02;;;;;;;28.48;17.77;;;8.70;83.70;;;;;;5034339;28;20367;-84
2022/09/11 00:50:31;;;;;;;43.42;17.95;;;8.70;83.90;;;;;;5034628;28;20022;-83
2022/09/11 00:53:01;;;;;;;31.20;16.00;;;8.70;83.90;;;;;;5033251;28;20033;-83
2022/09/11 00:55:31;;;;;;;39.67;17.83;;;8.70;83.60;;;;;;5037264;28;20056;-83
2022/09/11 00:58:11;;;;;;;33.70;16.80;;;8.70;83.30;;;;;;5050676;28;20052;-84
2022/09/11 01:00:41;;;;;;;37.30;17.17;;;8.70;83.00;;;;;;5036470;28;20031;-84
2022/09/11 01:03:07;;;;;;;36.78;17.42;;;8.70;82.90;;;;;;5034544;28;20043;-84
2022/09/11 01:05:36;;;;;;;30.77;16.98;;;8.70;82.90;;;;;;5044839;28;20092;-84
2022/09/11 01:08:03;;;;;;;36.75;18.70;;;8.70;82.90;;;;;;5036705;28;20025;-85
2022/09/11 01:10:38;;;;;;;36.80;16.92;;;8.70;82.90;;;;;;5040034;28;20068;-84
2022/09/11 01:13:16;;;;;;;39.17;18.25;;;8.70;83.20;;;;;;5034821;28;20502;-83
2022/09/11 01:16:19;;;;;;;43.38;17.85;;;8.70;83.10;;;;;;5034897;28;20029;-84
2022/09/11 01:19:00;;;;;;;38.08;17.90;;;8.70;83.10;;;;;;5030959;28;20352;-84
2022/09/11 01:22:06;;;;;;;46.15;19.50;;;8.70;83.50;;;;;;5032346;28;20029;-84
2022/09/11 01:24:53;;;;;;;35.03;17.27;;;8.70;83.60;;;;;;5033792;28;20357;-83
2022/09/11 01:27:40;;;;;;;42.28;17.55;;;8.60;83.60;;;;;;5021698;28;20036;-83
2022/09/11 01:30:09;;;;;;;40.45;19.17;;;8.50;84.00;;;;;;5033034;28;20018;-82
2022/09/11 01:32:41;;;;;;;36.15;18.35;;;8.50;84.10;;;;;;5033503;28;20041;-83
2022/09/11 01:35:16;;;;;;;33.25;18.20;;;8.40;84.50;;;;;;5033021;28;20155;-82
2022/09/11 01:37:53;;;;;;;42.67;19.10;;;8.50;84.90;;;;;;5032888;28;20057;-83
2022/09/11 01:40:30;;;;;;;27.45;17.75;;;8.40;84.90;;;;;;5032910;28;20041;-83
2022/09/11 01:43:05;;;;;;;38.63;17.17;;;8.40;84.90;;;;;;5036456;28;20033;-83
2022/09/11 01:45:35;;;;;;;30.33;17.52;;;8.40;84.90;;;;;;5038028;28;20032;-82
2022/09/11 01:48:01;;;;;;;34.38;18.33;;;8.40;85.00;;;;;;5035263;28;20031;-82
2022/09/11 01:50:30;;;;;;;45.67;19.13;;;8.30;85.10;;;;;;5032552;28;20100;-82
2022/09/11 01:53:04;;;;;;;38.92;17.90;;;8.30;85.30;;;;;;5032347;28;20016;-84
2022/09/11 01:55:40;;;;;;;27.40;16.58;;;8.30;85.60;;;;;;5027928;28;20581;-81
2022/09/11 01:58:20;;;;;;;30.13;16.95;;;8.20;85.40;;;;;;5033232;28;20025;-83
2022/09/11 02:00:50;;;;;;;29.13;15.88;;;8.20;85.20;;;;;;5033052;28;20036;-83
2022/09/11 02:03:28;;;;;;;26.13;16.50;;;8.20;85.20;;;;;;5032866;28;20029;-83
2022/09/11 02:06:00;;;;;;;38.40;18.75;;;8.20;85.10;;;;;;5032592;28;20024;-83
2022/09/11 02:08:47;;;;;;;38.30;17.95;;;8.20;85.10;;;;;;5032185;28;20060;-82
2022/09/11 02:11:14;;;;;;;;;;;8.20;85.20;;;;;;5031398;28;20025;-83
2022/09/11 02:13:48;;;;;;;28.30;16.40;;;8.20;84.70;;;;;;5032484;28;19916;-83
2022/09/11 02:16:25;;;;;;;28.30;16.42;;;8.20;85.20;;;;;;5032216;28;20045;-83
2022/09/11 02:18:59;;;;;;;23.17;15.10;;;8.20;85.30;;;;;;5033190;28;20462;-82
2022/09/11 02:21:25;;;;;;;32.75;16.83;;;8.10;85.30;;;;;;5027603;28;20049;-82
2022/09/11 02:23:51;;;;;;;28.70;17.70;;;8.10;85.50;;;;;;5035096;28;20100;-84
2022/09/11 02:26:23;;;;;;;26.52;17.13;;;8.10;85.60;;;;;;5049508;28;20014;-81
2022/09/11 02:28:49;;;;;;;33.10;16.42;;;8.10;85.70;;;;;;5029231;28;20540;-82
2022/09/11 02:31:18;;;;;;;26.65;17.70;;;8.10;86.40;;;;;;5040916;28;20049;-83
2022/09/11 02:33:44;;;;;;;26.75;17.52;;;8.10;85.90;;;;;;5043059;28;20022;-83
2022/09/11 02:36:40;;;;;;;28.52;18.20;;;8.10;85.80;;;;;;5032344;28;20052;-83
2022/09/11 02:39:36;;;;;;;39.55;18.13;;;8.10;85.80;;;;;;5028449;28;20021;-83
2022/09/11 02:42:20;;;;;;;27.52;18.60;;;8.10;86.00;;;;;;5013644;28;20041;-83
2022/09/11 02:45:27;;;;;;;29.27;16.67;;;8.00;86.00;;;;;;5020726;28;20379;-82
2022/09/11 02:48:15;;;;;;;31.98;17.83;;;8.00;86.10;;;;;;5031551;28;20036;-82
2022/09/11 02:51:02;;;;;;;34.72;17.58;;;8.00;86.20;;;;;;5031734;28;20026;-82
2022/09/11 02:53:30;;;;;;;29.08;16.75;;;8.00;86.20;;;;;;5032257;28;20387;-82
2022/09/11 02:56:15;;;;;;;28.35;17.17;;;8.00;86.20;;;;;;5031050;28;20108;-81
2022/09/11 02:58:55;;;;;;;27.15;17.33;;;8.00;86.20;;;;;;5034311;28;20450;-82
2022/09/11 03:01:22;;;;;;;26.77;17.02;;;8.00;86.20;;;;;;5031678;28;20025;-81
2022/09/11 03:03:48;;;;;;;30.05;16.17;;;8.00;86.10;;;;;;5031610;28;20029;-82
2022/09/11 03:06:23;;;;;;;25.15;17.95;;;8.00;86.00;;;;;;5043685;28;20023;-81
2022/09/11 03:08:50;;;;;;;33.70;17.92;;;8.00;86.10;;;;;;5035261;28;20028;-84
2022/09/11 03:11:19;;;;;;;34.50;17.40;;;8.00;86.10;;;;;;5038770;28;20049;-80
2022/09/11 03:13:44;;;;;;;24.55;16.67;;;8.10;86.20;;;;;;5036587;28;20049;-82
2022/09/11 03:16:11;;;;;;;28.73;17.63;;;8.10;86.10;;;;;;5037246;28;20099;-81
2022/09/11 03:18:37;;;;;;;32.40;18.50;;;8.10;86.10;;;;;;5043161;28;20049;-81
2022/09/11 03:21:03;;;;;;;30.90;17.58;;;8.10;86.10;;;;;;5046768;28;20036;-82
2022/09/11 03:23:30;;;;;;;30.30;17.00;;;8.20;86.00;;;;;;5041445;28;20025;-81
2022/09/11 03:25:57;;;;;;;31.08;18.05;;;8.20;85.80;;;;;;5031365;28;20022;-82
2022/09/11 03:28:23;;;;;;;36.08;17.98;;;8.30;85.60;;;;;;5029817;28;20025;-82
2022/09/11 03:30:49;;;;;;;25.05;17.33;;;8.40;85.60;;;;;;5035947;28;20114;-83
2022/09/11 03:33:16;;;;;;;25.90;17.02;;;8.40;85.40;;;;;;5035494;28;20043;-82
2022/09/11 03:35:46;;;;;;;30.80;18.42;;;8.50;85.30;;;;;;5034084;28;20025;-83
2022/09/11 03:38:12;;;;;;;28.05;16.38;;;8.50;85.20;;;;;;5035391;28;20355;-82
2022/09/11 03:40:38;;;;;;;34.88;17.20;;;8.60;85.10;;;;;;5035267;28;20086;-83
2022/09/11 03:43:04;;;;;;;31.80;18.00;;;8.60;84.90;;;;;;5035587;28;20037;-83
2022/09/11 03:45:29;;;;;;;29.95;17.45;;;8.70;84.60;;;;;;5036840;28;20029;-81
2022/09/11 03:47:56;;;;;;;27.08;16.52;;;8.80;84.40;;;;;;5039242;28;20031;-81
2022/09/11 03:50:22;;;;;;;32.90;17.08;;;8.80;84.10;;;;;;5036191;28;20071;-82
2022/09/11 03:52:48;;;;;;;37.67;18.15;;;8.80;83.90;;;;;;5035236;28;20029;-82
2022/09/11 03:55:15;;;;;;;37.33;19.48;;;8.80;83.60;;;;;;5031380;28;20032;-82
2022/09/11 03:57:41;;;;;;;36.47;18.65;;;8.90;83.60;;;;;;5034947;28;20026;-82
2022/09/11 04:00:09;;;;;;;30.02;16.13;;;8.90;83.20;;;;;;5034923;28;20109;-83
2022/09/11 04:02:34;;;;;;;;;;;9.00;83.00;;;;;;5034235;28;20095;-81
2022/09/11 04:05:03;;;;;;;31.02;17.98;;;9.00;82.80;;;;;;5041165;28;19913;-82
2022/09/11 04:07:30;;;;;;;30.13;17.33;;;9.10;82.90;;;;;;5049732;28;20424;-83
2022/09/11 04:09:56;;;;;;;34.85;18.00;;;9.10;82.90;;;;;;5034664;28;20028;-81
2022/09/11 04:12:22;;;;;;;32.70;17.90;;;9.20;83.10;;;;;;5041472;28;20088;-83
2022/09/11 04:14:49;;;;;;;31.77;17.98;;;9.40;83.00;;;;;;5042826;28;20383;-83
2022/09/11 04:17:15;;;;;;;28.02;16.85;;;9.80;82.30;;;;;;5034140;28;20387;-83
2022/09/11 04:19:41;;;;;;;23.63;15.60;;;10.20;80.80;;;;;;5034446;28;20022;-83
2022/09/11 04:22:07;;;;;;;24.98;14.82;;;10.70;79.10;;;;;;5033094;28;20042;-83
2022/09/11 04:24:34;;;;;;;27.67;16.23;;;11.20;77.10;;;;;;5034546;28;20051;-83
2022/09/11 04:27:00;;;;;;;23.52;16.00;;;11.70;75.20;;;;;;5020488;28;20546;-82
2022/09/11 04:29:26;;;;;;;21.30;15.85;;;12.30;73.20;;;;;;5035244;28;20022;-83
2022/09/11 04:31:52;;;;;;;25.85;15.43;;;12.80;70.80;;;;;;5032695;28;20052;-82
2022/09/11 04:34:18;;;;;;;25.00;14.55;;;13.30;68.50;;;;;;5034887;28;20021;-83
2022/09/11 04:36:44;;;;;;;24.52;15.60;;;13.90;66.80;;;;;;5034100;28;20028;-82
2022/09/11 04:39:10;;;;;;;19.13;14.70;;;14.40;65.20;;;;;;5034647;28;20013;-84
2022/09/11 04:41:36;;;;;;;20.98;14.23;;;;;;;;;;5033727;28;20056;-83
2022/09/11 04:44:02;;;;;;;20.33;14.15;;;14.90;63.50;;;;;;5034301;28;20083;-84
2022/09/11 04:46:28;;;;;;;22.27;14.25;;;15.30;60.10;;;;;;5034877;28;20028;-84
2022/09/11 04:48:58;;;;;;;22.52;14.73;;;14.80;60.60;;;;;;5032805;28;20111;-84
2022/09/11 04:51:29;;;;;;;26.40;16.33;;;14.20;61.90;;;;;;5021750;28;20017;-83
2022/09/11 04:53:57;;;;;;;22.65;15.85;;;13.60;62.90;;;;;;5029529;28;20020;-83
2022/09/11 04:56:33;;;;;;;23.67;15.52;;;13.00;64.30;;;;;;5020034;28;20112;-84
2022/09/11 04:59:14;;;;;;;21.70;15.32;;;12.60;65.60;;;;;;5034154;28;20021;-83
2022/09/11 05:01:41;;;;;;;20.98;14.93;;;12.20;67.00;;;;;;5033968;28;20036;-84
2022/09/11 05:04:09;;;;;;;24.70;15.43;;;11.90;68.10;;;;;;5033541;28;20028;-85
2022/09/11 05:06:36;;;;;;;20.38;14.55;;;11.70;68.80;;;;;;5049239;28;20115;-84
2022/09/11 05:09:07;;;;;;;18.85;15.00;;;11.50;69.20;;;;;;5032735;28;20057;-83
2022/09/11 05:11:33;;;;;;;26.15;14.50;;;11.30;69.70;;;;;;5046730;28;20083;-84
2022/09/11 05:13:59;;;;;;;21.02;14.40;;;11.20;70.30;;;;;;5035323;28;20100;-85
2022/09/11 05:16:27;;;;;;;26.33;15.95;;;11.10;70.30;;;;;;5045313;28;20013;-83
2022/09/11 05:18:53;;;;;;;20.85;14.70;;;10.90;70.70;;;;;;5047344;28;20018;-82
2022/09/11 05:21:24;;;;;;;19.33;14.70;;;10.80;71.00;;;;;;5033186;28;20034;-82
2022/09/11 05:23:53;;;;;;;21.52;14.88;;;10.70;71.50;;;;;;5028632;28;20031;-82
2022/09/11 05:26:23;;;;;;;33.85;16.65;;;10.60;72.10;;;;;;5027097;28;20017;-81
2022/09/11 05:28:54;;;;;;;29.20;14.93;;;10.60;72.70;;;;;;5032826;28;20095;-83
2022/09/11 05:31:21;;;;;;;23.60;15.75;;;10.60;73.30;;;;;;5033553;28;20103;-83
2022/09/11 05:33:47;;;;;;;33.70;15.15;;;10.60;73.60;;;;;;5033825;28;20026;-81
2022/09/11 05:36:14;;;;;;;29.08;16.27;;;10.60;73.50;;;;;;5033273;28;20036;-83
2022/09/11 05:38:41;;;;;;;21.42;14.27;;;10.60;73.50;;;;;;5037633;28;20026;-81
2022/09/11 05:41:10;;;;;;;23.30;14.80;;;10.50;73.50;;;;;;5049140;28;20049;-82
2022/09/11 05:43:36;;;;;;;22.83;14.27;;;10.50;73.50;;;;;;5038245;28;20036;-84
2022/09/11 05:46:03;;;;;;;24.88;14.77;;;10.60;73.30;;;;;;5041068;28;20348;-84
2022/09/11 05:48:30;;;;;;;22.42;15.02;;;10.60;73.40;;;;;;5032416;28;20022;-83
2022/09/11 05:51:01;;;;;;;25.65;14.88;;;10.80;73.40;;;;;;5048957;28;20060;-82
2022/09/11 05:53:32;;;;;;;19.42;14.73;;;10.90;73.10;;;;;;5038060;28;20049;-81
2022/09/11 05:56:09;;;;;;;22.98;15.63;;;11.00;73.10;;;;;;5034121;28;20030;-82
2022/09/11 05:58:37;;;;;;;22.98;15.15;;;11.10;73.10;;;;;;5037743;28;20024;-82
2022/09/11 06:01:07;;;;;;;22.98;14.77;;;11.30;72.50;;;;;;5044403;28;20028;-82
2022/09/11 06:03:35;;;;;;;20.42;13.23;;;11.40;71.90;;;;;;5023719;28;20103;-82
2022/09/11 06:06:02;;;;;;;23.98;13.68;;;11.70;71.30;;;;;;5022312;28;20014;-83
2022/09/11 06:08:29;;;;;;;19.48;12.52;;;12.10;69.60;;;;;;5030439;28;20097;-83
2022/09/11 06:11:00;;;;;;;13.55;11.05;;;12.30;68.30;;;;;;5018841;28;20025;-81
2022/09/11 06:13:29;;;;;;;22.08;13.20;;;12.40;67.40;;;;;;5022117;28;20495;-82
2022/09/11 06:15:55;;;;;;;22.33;11.98;;;12.50;67.10;;;;;;5030889;28;20030;-82
2022/09/11 06:18:21;;;;;;;19.10;13.10;;;12.80;66.50;;;;;;5039172;28;20135;-83
2022/09/11 06:20:59;;;;;;;17.85;11.95;;;12.90;66.10;;;;;;5042885;28;20033;-83
2022/09/11 06:23:26;;;;;;;17.23;11.45;;;13.10;65.60;;;;;;5019258;28;20030;-84
2022/09/11 06:25:53;;;;;;;22.23;11.30;;;13.20;65.00;;;;;;5027642;28;20437;-84
2022/09/11 06:28:22;;;;;;;23.80;11.40;;;13.40;64.70;;;;;;5038616;28;20133;-82
2022/09/11 06:30:52;;;;;;;18.05;11.48;;;13.50;63.70;;;;;;5038609;28;20045;-83
2022/09/11 06:33:19;;;;;;;16.42;9.68;;;13.60;63.70;;;;;;5026416;28;20116;-84
2022/09/11 06:36:06;;;;;;;15.18;8.52;;;13.80;63.00;;;;;;5030269;28;20052;-84
2022/09/11 06:38:32;;;;;;;;;;;14.10;62.40;;;;;;5038730;28;20025;-83
2022/09/11 06:41:04;;;;;;;11.20;8.43;;;14.20;62.50;;;;;;5038252;28;19950;-83
2022/09/11 06:43:31;;;;;;;10.80;7.32;;;14.20;61.60;;;;;;5038359;28;20144;-81
2022/09/11 06:46:11;;;;;;;9.82;6.95;;;14.20;61.00;;;;;;5041992;28;20121;-82
2022/09/11 06:48:38;;;;;;;7.43;4.50;;;14.40;60.30;;;;;;5028393;28;20052;-83
2022/09/11 06:51:05;;;;;;;7.15;5.50;;;14.60;59.10;;;;;;5037234;28;20021;-83
2022/09/11 06:53:32;;;;;;;6.43;4.90;;;14.50;58.70;;;;;;5039570;28;20030;-83
2022/09/11 06:56:02;;;;;;;8.50;5.40;;;14.50;58.30;;;;;;5037874;28;20026;-84
2022/09/11 06:58:28;;;;;;;6.95;5.00;;;14.50;58.60;;;;;;5038962;28;20018;-83
2022/09/11 07:01:05;;;;;;;12.45;5.78;;;14.50;58.70;;;;;;5036694;28;20105;-82
2022/09/11 07:03:31;;;;;;;15.05;6.82;;;14.90;58.40;;;;;;5038287;28;20024;-83
2022/09/11 07:05:58;;;;;;;14.23;7.53;;;15.60;57.90;;;;;;5037718;28;20053;-83
2022/09/11 07:08:24;;;;;;;14.57;7.33;;;16.50;56.30;;;;;;5038255;28;20021;-85
2022/09/11 07:10:50;;;;;;;13.63;7.28;;;;;;;;;;5037319;28;20084;-83
2022/09/11 07:13:16;;;;;;;15.27;6.47;;;18.90;52.20;;;;;;5039508;28;20028;-84
2022/09/11 07:15:42;;;;;;;8.43;6.30;;;19.90;48.70;;;;;;5052333;28;20022;-84
2022/09/11 07:18:08;;;;;;;9.02;5.35;;;20.80;47.50;;;;;;5037836;28;20021;-85
2022/09/11 07:20:34;;;;;;;6.53;4.30;;;21.40;44.80;;;;;;5037695;28;20029;-85
2022/09/11 07:23:00;;;;;;;23.50;5.40;;;21.20;44.20;;;;;;5024255;28;20090;-84
2022/09/11 07:25:26;;;;;;;12.80;5.13;;;21.40;44.10;;;;;;5031774;28;20146;-84
2022/09/11 07:27:52;;;;;;;7.65;5.22;;;21.70;43.20;;;;;;5033716;28;20049;-86
2022/09/11 07:30:18;;;;;;;13.50;6.43;;;22.20;43.00;;;;;;5028585;28;20042;-85
2022/09/11 07:32:45;;;;;;;15.85;6.75;;;22.70;42.30;;;;;;5018172;28;20037;-84
2022/09/11 07:35:20;;;;;;;10.93;6.25;;;23.20;41.50;;;;;;5018810;28;20018;-82
2022/09/11 07:37:47;;;;;;;9.73;5.13;;;23.40;40.80;;;;;;5018092;28;20037;-84
2022/09/11 07:40:13;;;;;;;;;;;23.10;40.70;;;;;;5018308;28;20022;-84
2022/09/11 07:42:40;;;;;;;10.17;5.63;;;22.80;42.40;;;;;;5028949;28;19965;-83
2022/09/11 07:45:12;;;;;;;13.83;5.43;;;22.40;41.60;;;;;;5027402;28;20117;-83
2022/09/11 07:47:38;;;;;;;9.10;4.43;;;22.70;41.40;;;;;;5027321;28;20373;-83
2022/09/11 07:50:07;;;;;;;11.40;4.50;;;22.60;40.40;;;;;;5055549;28;20025;-84
2022/09/11 07:52:35;;;;;;;10.73;5.13;;;22.60;40.60;;;;;;5042638;28;20484;-84
2022/09/11 07:55:02;;;;;;;6.85;4.70;;;22.40;40.70;;;;;;5042622;28;20022;-83
2022/09/11 07:57:29;;;;;;;7.70;4.83;;;22.20;40.50;;;;;;5027671;28;20037;-83
2022/09/11 07:59:55;;;;;;;;;;;21.40;40.90;;;;;;5026389;28;20262;-83
2022/09/11 08:02:22;;;;;;;6.63;4.50;;;20.10;43.60;;;;;;5021528;28;19917;-83
2022/09/11 08:04:47;;;;;;;6.57;4.75;;;18.80;45.20;;;;;;5024108;28;20022;-83
2022/09/11 08:07:13;;;;;;;6.63;5.07;;;18.10;47.10;;;;;;5023023;28;20030;-83
2022/09/11 08:09:39;;;;;;;8.52;5.47;;;18.40;47.40;;;;;;5017776;28;20061;-84
2022/09/11 08:12:05;;;;;;;11.25;5.75;;;18.50;47.10;;;;;;5021953;28;20026;-83
2022/09/11 08:14:31;;;;;;;10.00;5.63;;;19.30;47.20;;;;;;5021319;28;20483;-83
2022/09/11 08:16:57;;;;;;;8.25;5.07;;;20.40;45.30;;;;;;5026217;28;20491;-85
2022/09/11 08:19:23;;;;;;;8.75;5.57;;;21.20;43.60;;;;;;5017186;28;20018;-83
2022/09/11 08:21:50;;;;;;;13.02;5.55;;;21.90;42.80;;;;;;5019736;28;20034;-84
2022/09/11 08:24:16;;;;;;;9.38;5.25;;;23.00;41.50;;;;;;5021018;28;20044;-83
2022/09/11 08:26:43;;;;;;;12.65;5.53;;;23.40;40.00;;;;;;5026029;28;20090;-83
2022/09/11 08:29:09;;;;;;;11.77;6.30;;;23.60;39.40;;;;;;5035351;28;20108;-83
2022/09/11 08:31:35;;;;;;;11.27;5.45;;;23.60;39.40;;;;;;5038046;28;20454;-85
2022/09/11 08:34:01;;;;;;;8.52;4.75;;;23.20;39.00;;;;;;5022164;28;20052;-86
2022/09/11 08:36:28;;;;;;;10.57;4.00;;;22.80;39.30;;;;;;5038421;28;20483;-84
2022/09/11 08:38:55;;;;;;;7.45;4.15;;;22.50;39.50;;;;;;5031106;28;20044;-85
2022/09/11 08:41:55;;;;;;;13.57;4.22;;;22.20;39.90;;;;;;5033535;28;20808;-85
2022/09/11 08:44:28;;;;;;;6.68;3.65;;;21.00;40.40;;;;;;5025477;28;20072;-85
2022/09/11 08:46:59;;;;;;;6.78;4.10;;;20.10;42.00;;;;;;5037787;28;20010;-87
2022/09/11 08:49:27;;;;;;;8.52;4.00;;;20.00;42.60;;;;;;5032121;28;20028;-84
2022/09/11 08:51:59;;;;;;;12.50;4.25;;;20.70;41.70;;;;;;5036395;28;20030;-82
2022/09/11 08:54:30;;;;;;;11.20;3.97;;;21.00;41.60;;;;;;5027632;28;20030;-83
2022/09/11 08:57:30;;;;;;;7.15;3.80;;;21.40;40.60;;;;;;5030535;28;20060;-82
2022/09/11 09:00:11;;;;;;;6.53;3.97;;;21.00;40.90;;;;;;5044129;28;20037;-83
2022/09/11 09:03:04;;;;;;;4.85;3.97;;;20.50;42.10;;;;;;5032275;28;20470;-81
2022/09/11 09:05:56;;;;;;;8.40;4.03;;;20.40;42.30;;;;;;5026950;28;20070;-82
2022/09/11 09:08:54;;;;;;;11.25;4.60;;;20.70;42.20;;;;;;5029231;28;20034;-92
2022/09/11 09:11:33;;;;;;;5.97;4.15;;;20.80;42.20;;;;;;5035557;28;20431;-90
2022/09/11 09:14:28;;;;;;;8.38;4.20;;;21.60;41.10;;;;;;5045453;28;20025;-89
2022/09/11 09:17:32;;;;;;;7.78;3.78;;;22.10;40.30;;;;;;5045546;28;20121;-91
2022/09/11 09:20:08;;;;;;;9.90;4.15;;;23.30;39.60;;;;;;5023019;28;20084;-91
2022/09/11 09:22:56;;;;;;;8.07;3.90;;;23.90;37.90;;;;;;5043101;28;20033;-92
2022/09/11 09:25:24;;;;;;;7.43;3.58;;;24.70;37.10;;;;;;5033550;28;20026;-92
2022/09/11 09:28:23;;;;;;;6.22;4.20;;;24.70;36.50;;;;;;5050778;28;20026;-89
2022/09/11 09:30:56;;;;;;;8.55;3.58;;;25.20;36.00;;;;;;5054103;28;20037;-87
2022/09/11 09:33:42;;;;;;;6.00;3.72;;;25.50;35.10;;;;;;5044953;28;20029;-88
2022/09/11 09:36:13;;;;;;;;;;;25.70;34.80;;;;;;5031024;28;20031;-86
2022/09/11 09:38:39;;;;;;;4.75;3.25;;;25.20;35.90;;;;;;5054564;28;19959;-86
2022/09/11 09:41:31;;;;;;;5.53;3.60;;;24.30;35.40;;;;;;5047767;28;20049;-87
2022/09/11 09:44:15;;;;;;;4.75;3.53;;;23.80;36.10;;;;;;5017623;28;20137;-88
2022/09/11 09:46:47;;;;;;;7.25;3.78;;;23.50;36.60;;;;;;5030393;28;20048;-87
2022/09/11 09:49:31;;;;;;;9.23;4.53;;;23.60;36.80;;;;;;5007000;28;20138;-85
2022/09/11 09:52:01;;;;;;;6.93;3.83;;;23.90;37.00;;;;;;4996552;28;20037;-86
2022/09/11 09:54:38;;;;;;;8.80;3.70;;;24.40;36.50;;;;;;4994602;28;20033;-86
2022/09/11 09:57:09;;;;;;;7.38;3.85;;;25.10;35.80;;;;;;4993154;28;20042;-84
2022/09/11 10:00:00;;;;;;;6.10;3.58;;;25.80;35.10;;;;;;4997260;28;20035;-82
2022/09/11 10:02:49;;;;;;;8.13;3.70;;;26.10;34.40;;;;;;4993957;28;20483;-87
2022/09/11 10:05:25;;;;;;;6.95;3.97;;;26.10;34.40;;;;;;5004212;28;20077;-87
2022/09/11 10:07:56;;;;;;;6.47;4.10;;;25.80;34.10;;;;;;5003573;28;20073;-89
2022/09/11 10:10:27;;;;;;;7.78;4.65;;;25.20;34.70;;;;;;5007497;28;20055;-89
2022/09/11 10:12:56;;;;;;;10.02;4.47;;;24.50;35.50;;;;;;5004296;28;20038;-86
2022/09/11 10:15:24;;;;;;;8.15;4.45;;;23.80;36.00;;;;;;4995758;28;20034;-86
2022/09/11 10:17:51;;;;;;;5.68;4.13;;;23.20;37.00;;;;;;4997723;28;20031;-86
2022/09/11 10:20:22;;;;;;;11.20;3.88;;;22.70;37.60;;;;;;4999336;28;20038;-88
2022/09/11 10:22:49;;;;;;;5.32;3.33;;;22.00;38.50;;;;;;5043802;28;20046;-87
2022/09/11 10:25:21;;;;;;;;;;;21.20;39.50;;;;;;5025005;28;20133;-87
2022/09/11 10:28:01;;;;;;;6.85;3.80;;;20.30;41.10;;;;;;5040987;28;19909;-88
2022/09/11 10:30:58;;;;;;;8.57;4.40;;;19.70;42.20;;;;;;5041882;28;20045;-92
2022/09/11 10:33:40;;;;;;;6.10;4.03;;;18.90;43.70;;;;;;5041192;28;20410;-89
2022/09/11 10:36:11;;;;;;;11.57;4.85;;;18.50;44.50;;;;;;5023616;28;20156;-88
2022/09/11 10:38:44;;;;;;;6.45;4.65;;;18.50;45.60;;;;;;5034386;28;20029;-92
2022/09/11 10:41:19;;;;;;;5.47;4.40;;;18.70;44.90;;;;;;5033094;28;20117;-90
2022/09/11 10:44:01;;;;;;;7.18;4.10;;;18.80;44.30;;;;;;5029707;28;20376;-87
2022/09/11 10:46:31;;;;;;;6.78;3.60;;;18.40;44.80;;;;;;5036184;28;20020;-89
2022/09/11 10:49:17;;;;;;;5.97;4.03;;;18.30;45.30;;;;;;5043966;28;20036;-90
2022/09/11 10:52:00;;;;;;;5.20;4.13;;;18.30;45.40;;;;;;5035616;28;20082;-91
2022/09/11 10:54:49;;;;;;;5.38;3.63;;;18.00;45.90;;;;;;5018050;28;20022;-89
2022/09/11 10:57:33;;;;;;;5.75;3.47;;;18.10;46.00;;;;;;5015693;28;20033;-88
2022/09/11 11:00:12;;;;;;;4.85;3.47;;;18.30;45.80;;;;;;5017150;28;20108;-89
2022/09/11 11:02:42;;;;;;;7.22;4.60;;;18.10;46.30;;;;;;5033953;28;20061;-88
2022/09/11 11:05:18;;;;;;;5.18;3.38;;;18.20;46.60;;;;;;5024131;28;20028;-92
2022/09/11 11:07:52;;;;;;;9.35;4.20;;;18.10;45.90;;;;;;5027661;28;20108;-85
2022/09/11 11:10:33;;;;;;;7.55;4.63;;;18.00;46.50;;;;;;5029967;28;20057;-85
2022/09/11 11:13:22;;;;;;;7.75;4.20;;;17.70;46.70;;;;;;5022636;28;20018;-87
2022/09/11 11:16:06;;;;;;;8.95;4.35;;;17.70;47.10;;;;;;5026664;28;20057;-91
2022/09/11 11:19:15;;;;;;;5.20;3.22;;;17.50;47.00;;;;;;5039109;28;20059;-91
2022/09/11 11:22:20;;;;;;;7.97;3.88;;;17.20;47.50;;;;;;5017493;28;20037;-88
2022/09/11 11:25:20;;;;;;;6.72;3.75;;;17.10;47.90;;;;;;5021287;28;20094;-87
2022/09/11 11:28:16;;;;;;;7.25;3.83;;;17.00;48.30;;;;;;5050040;28;20044;-85
2022/09/11 11:31:14;;;;;;;10.68;4.45;;;17.10;48.50;;;;;;5042766;28;20052;-86
2022/09/11 11:33:57;;;;;;;6.55;4.90;;;17.10;48.10;;;;;;5032495;28;20022;-87
2022/09/11 11:36:27;;;;;;;7.85;4.30;;;17.10;48.70;;;;;;5035788;28;20506;-86
2022/09/11 11:39:15;;;;;;;7.50;4.18;;;17.10;48.80;;;;;;5035608;28;20032;-86
2022/09/11 11:42:06;;;;;;;11.38;4.90;;;17.10;49.10;;;;;;5038165;28;20108;-85
2022/09/11 11:44:44;;;;;;;5.18;4.22;;;17.20;48.90;;;;;;5038270;28;20032;-85
2022/09/11 11:47:13;;;;;;;8.75;5.43;;;17.30;49.00;;;;;;5037195;28;20479;-85
2022/09/11 11:50:09;;;;;;;9.68;4.90;;;17.30;49.00;;;;;;5040928;28;20108;-82
2022/09/11 11:52:52;;;;;;;7.13;5.13;;;17.50;49.00;;;;;;5035700;28;20037;-86
2022/09/11 11:55:25;;;;;;;9.20;4.60;;;17.80;48.30;;;;;;5028848;28;20065;-88
2022/09/11 11:58:03;;;;;;;10.40;5.55;;;17.90;48.30;;;;;;5044057;28;20112;-88
2022/09/11 12:00:37;;;;;;;8.63;5.45;;;17.60;48.30;;;;;;5035655;28;20049;-88
2022/09/11 12:03:28;;;;;;;10.85;6.30;;;17.30;49.20;;;;;;5049909;28;20026;-87
2022/09/11 12:05:55;;;;;;;9.25;5.20;;;17.40;49.40;;;;;;5034911;28;20018;-88
2022/09/11 12:08:22;;;;;;;7.28;3.80;;;17.50;49.10;;;;;;5029518;28;20599;-87
2022/09/11 12:10:57;;;;;;;;;;;17.60;48.80;;;;;;5029115;28;20030;-88
2022/09/11 12:13:45;;;;;;;10.60;5.20;;;17.60;48.70;;;;;;5028282;28;19980;-87
2022/09/11 12:16:16;;;;;;;8.27;4.60;;;17.60;48.80;;;;;;5034421;28;20112;-87
2022/09/11 12:19:13;;;;;;;11.60;5.05;;;17.70;49.00;;;;;;5017960;28;20070;-87
2022/09/11 12:21:41;;;;;;;5.85;4.65;;;17.80;48.70;;;;;;5032727;28;20498;-88
2022/09/11 12:24:07;;;;;;;6.88;4.03;;;17.90;48.40;;;;;;5035882;28;20104;-85
2022/09/11 12:26:33;;;;;;;8.07;4.97;;;17.90;48.00;;;;;;5030657;28;20052;-81
2022/09/11 12:29:11;;;;;;;7.70;4.78;;;17.70;48.30;;;;;;5017193;28;20375;-87
2022/09/11 12:31:49;;;;;;;6.82;4.13;;;17.70;48.80;;;;;;5021439;28;20049;-87
2022/09/11 12:34:17;;;;;;;6.80;3.65;;;17.80;48.80;;;;;;5017975;28;20025;-85
2022/09/11 12:36:50;;;;;;;4.15;2.92;;;17.60;48.60;;;;;;5033092;28;20539;-84
2022/09/11 12:39:46;;;;;;;7.05;2.97;;;17.50;48.30;;;;;;5027438;28;20025;-84
2022/09/11 12:42:26;;;;;;;6.03;3.45;;;17.20;48.60;;;;;;5019853;28;20034;-88
2022/09/11 12:44:55;;;;;;;7.65;3.50;;;17.00;49.20;;;;;;5021102;28;20029;-85
2022/09/11 12:47:28;;;;;;;8.75;3.55;;;16.80;49.60;;;;;;5022274;28;20030;-86
2022/09/11 12:50:03;;;;;;;4.07;3.25;;;16.90;49.60;;;;;;5030195;28;20374;-85
2022/09/11 12:52:49;;;;;;;8.88;3.13;;;17.10;49.50;;;;;;5021756;28;20032;-84
2022/09/11 12:55:21;;;;;;;6.77;2.93;;;17.10;49.50;;;;;;5038347;28;20032;-87
2022/09/11 12:57:50;;;;;;;6.72;2.60;;;17.00;49.20;;;;;;5029644;28;20026;-85
2022/09/11 13:00:36;;;;;;;6.28;2.60;;;16.90;49.20;;;;;;5032125;28;20064;-80
2022/09/11 13:03:05;;;;;;;7.40;2.67;;;16.90;49.40;;;;;;5023397;28;20038;-79
2022/09/11 13:05:36;;;;;;;4.32;2.42;;;16.80;49.50;;;;;;5035873;28;20505;-86
2022/09/11 13:08:14;;;;;;;3.03;2.40;;;16.70;49.90;;;;;;5026170;28;20495;-84
2022/09/11 13:10:40;;;;;;;4.97;2.33;;;16.70;49.90;;;;;;5028935;28;20108;-86